Time;durP1;ratioP1;P1;durP2;ratioP2;P2;SDS_P1;SDS_P2;PMS_P1;PMS_P2;Temp;Humidity;BMP_temperature;BMP_pressure;BME280_temperature;BME280_humidity;BME280_pressure;Samples;Min_cycle;Max_cycle;Signal;HPM_P1;HPM_P2
2022/10/26 00:02:43;;;;;;;38.40;19.63;;;;;;;7.34;100.00;101369.31;12900396;22;20015;-89
2022/10/26 00:07:43;;;;;;;37.42;19.88;;;;;;;8.24;100.00;101477.84;12900109;22;20015;-89
2022/10/26 00:12:47;;;;;;;37.90;18.98;;;;;;;6.65;100.00;101245.88;12899880;22;20004;-89
2022/10/26 00:17:50;;;;;;;47.85;20.70;;;;;;;7.38;100.00;101343.16;12915584;22;20417;-89
2022/10/26 00:22:50;;;;;;;43.38;21.23;;;;;;;7.63;100.00;101388.94;12860375;22;20008;-89
2022/10/26 00:27:51;;;;;;;36.33;18.85;;;;;;;7.32;100.00;101345.91;12889210;22;20031;-89
2022/10/26 00:32:52;;;;;;;40.58;20.63;;;;;;;7.70;100.00;101427.25;12874451;22;20038;-89
2022/10/26 00:37:55;;;;;;;41.58;21.33;;;;;;;8.11;100.00;101478.81;12836518;22;20034;-90
2022/10/26 00:42:56;;;;;;;46.40;21.05;;;;;;;7.42;100.00;101343.53;12901629;22;20012;-89
2022/10/26 00:48:01;;;;;;;38.13;19.50;;;;;;;7.02;100.00;101284.41;12888532;22;20507;-89
2022/10/26 00:53:03;;;;;;;37.67;20.02;;;;;;;7.32;100.00;101322.13;12915596;22;20011;-89
2022/10/26 00:58:05;;;;;;;40.95;19.90;;;;;;;6.97;100.00;101299.84;12916947;22;20011;-89
2022/10/26 01:03:08;;;;;;;39.40;19.02;;;;;;;6.88;100.00;101277.34;12916426;22;20003;-90
2022/10/26 01:08:09;;;;;;;41.38;19.98;;;;;;;6.66;100.00;101294.09;12896411;22;20008;-89
2022/10/26 01:13:09;;;;;;;44.42;20.55;;;;;;;7.14;100.00;101336.56;12924518;22;20015;-89
2022/10/26 01:18:41;;;;;;;42.90;20.10;;;;;;;6.79;100.00;101275.94;12916224;22;20031;-94
2022/10/26 01:23:53;;;;;;;34.45;19.27;;;;;;;6.85;100.00;101278.63;12905923;22;19999;-93
2022/10/26 01:29:23;;;;;;;35.28;19.08;;;;;;;6.32;100.00;101171.41;12991705;22;20041;-89
2022/10/26 01:34:30;;;;;;;44.58;20.55;;;;;;;7.06;100.00;101293.84;12867279;22;20068;-89
2022/10/26 01:39:37;;;;;;;40.83;19.35;;;;;;;7.02;100.00;101328.22;12978967;22;19996;-89
2022/10/26 01:44:42;;;;;;;39.80;20.85;;;;;;;6.63;100.00;101248.00;12951146;22;20422;-89
2022/10/26 01:49:46;;;;;;;47.47;21.75;;;;;;;8.07;100.00;101478.41;12961992;22;20019;-89
2022/10/26 01:54:46;;;;;;;49.40;21.30;;;;;;;7.00;100.00;101302.94;12976108;22;20011;-89
2022/10/26 01:59:56;;;;;;;38.45;19.77;;;;;;;6.35;100.00;101179.19;12961251;22;20391;-89
2022/10/26 02:05:24;;;;;;;35.25;19.77;;;;;;;8.00;100.00;101460.31;12978068;22;20441;-89
2022/10/26 02:10:43;;;;;;;46.13;21.80;;;;;;;7.89;100.00;101454.50;13025343;22;20094;-88
2022/10/26 02:15:55;;;;;;;37.50;18.58;;;;;;;7.08;100.00;101398.50;12971551;22;19999;-89
2022/10/26 02:20:59;;;;;;;35.80;18.70;;;;;;;6.16;100.00;101190.00;12924210;22;20010;-89
2022/10/26 02:26:00;;;;;;;39.42;19.27;;;;;;;6.43;100.00;101264.53;12949578;22;20011;-89
2022/10/26 02:31:04;;;;;;;34.50;18.73;;;;;;;6.94;100.00;101358.56;12938336;22;20074;-89
2022/10/26 02:36:07;;;;;;;36.65;19.42;;;;;;;6.11;100.00;101184.31;12928633;22;20030;-89
2022/10/26 02:41:08;;;;;;;39.10;21.13;;;;;;;5.40;100.00;101049.47;12933133;22;20011;-89
2022/10/26 02:46:10;;;;;;;40.40;21.02;;;;;;;5.90;100.00;101181.88;12950642;22;20003;-93
2022/10/26 02:51:13;;;;;;;37.92;21.63;;;;;;;7.52;100.00;101431.56;12953993;22;20022;-94
2022/10/26 02:56:19;;;;;;;35.80;20.20;;;;;;;7.00;100.00;101390.56;12973261;22;20003;-94
2022/10/26 03:01:19;;;;;;;39.38;19.23;;;;;;;7.34;100.00;101453.38;12981901;22;20005;-94
2022/10/26 03:06:22;;;;;;;45.00;20.30;;;;;;;5.89;100.00;101252.09;12929051;22;20460;-94
2022/10/26 03:11:23;;;;;;;40.50;19.55;;;;;;;5.30;100.00;101155.56;12928263;22;20094;-94
2022/10/26 03:16:24;;;;;;;33.72;18.45;;;;;;;5.32;100.00;101172.56;12934703;22;20027;-90
2022/10/26 03:21:24;;;;;;;36.45;19.10;;;;;;;5.14;100.00;101154.09;12967484;22;20047;-94
2022/10/26 03:26:27;;;;;;;38.00;20.13;;;;;;;6.56;100.00;101337.50;12908826;22;20034;-94
2022/10/26 03:31:28;;;;;;;40.40;19.05;;;;;;;5.81;100.00;101252.31;12968183;22;20053;-93
2022/10/26 03:36:29;;;;;;;36.92;21.15;;;;;;;5.91;100.00;101240.91;12969429;22;20031;-94
2022/10/26 03:41:29;;;;;;;43.08;23.10;;;;;;;5.52;100.00;101207.16;12970878;22;20061;-89
2022/10/26 03:46:30;;;;;;;50.92;25.95;;;;;;;5.50;100.00;101168.31;12952736;22;20072;-89
2022/10/26 03:51:30;;;;;;;57.72;26.77;;;;;;;5.96;100.00;101249.38;12915871;22;20015;-88
2022/10/26 03:56:31;;;;;;;52.67;25.58;;;;;;;5.29;100.00;101132.00;12948262;22;20014;-90
2022/10/26 04:01:37;;;;;;;52.80;27.10;;;;;;;5.66;100.00;101154.19;12956214;22;20439;-89
2022/10/26 04:06:38;;;;;;;58.78;26.92;;;;;;;5.30;100.00;101121.97;12936860;22;20326;-89
2022/10/26 04:11:39;;;;;;;55.72;27.17;;;;;;;7.26;100.00;101427.09;12949949;22;20015;-94
2022/10/26 04:16:42;;;;;;;61.78;28.92;;;;;;;6.12;100.00;101258.97;12984729;22;20000;-93
2022/10/26 04:21:42;;;;;;;60.88;27.75;;;;;;;5.61;100.00;101157.56;12968216;22;20033;-93
2022/10/26 04:26:54;;;;;;;;;;;;;;;;;;;;;
2022/10/26 04:32:15;;;;;;;66.85;32.40;;;;;;;6.14;100.00;101197.56;12919711;22;20038;-94
2022/10/26 04:37:18;;;;;;;67.30;31.42;;;;;;;6.19;100.00;101188.72;12852461;22;19991;-90
2022/10/26 04:42:18;;;;;;;73.47;31.40;;;;;;;7.46;100.00;101447.00;12953029;22;20003;-94
2022/10/26 04:47:19;;;;;;;71.95;35.35;;;;;;;5.38;100.00;101086.25;12945327;22;20019;-90
2022/10/26 04:52:19;;;;;;;74.63;34.13;;;;;;;5.97;100.00;101161.66;12942011;22;20010;-90
2022/10/26 04:57:20;;;;;;;75.03;32.78;;;;;;;6.19;100.00;101164.94;12919822;22;20014;-94
2022/10/26 05:02:21;;;;;;;70.40;32.60;;;;;;;6.34;100.00;101169.28;12925854;22;20017;-94
2022/10/26 05:07:24;;;;;;;88.88;34.45;;;;;;;6.98;100.00;101265.91;12970757;22;20027;-94
2022/10/26 05:12:25;;;;;;;74.18;33.85;;;;;;;6.91;100.00;101270.59;12956315;22;20014;-89
2022/10/26 05:17:26;;;;;;;77.18;34.95;;;;;;;6.79;100.00;101257.59;12980363;22;20011;-94
2022/10/26 05:22:26;;;;;;;77.88;34.25;;;;;;;6.42;100.00;101138.94;12924252;22;20011;-89
2022/10/26 05:27:30;;;;;;;73.68;32.85;;;;;;;6.23;100.00;101058.72;12900716;22;20027;-94
2022/10/26 05:32:33;;;;;;;76.78;33.00;;;;;;;7.81;100.00;101336.91;12913768;22;20027;-90
2022/10/26 05:37:36;;;;;;;78.78;32.22;;;;;;;6.40;100.00;101061.75;12917572;22;20162;-94
2022/10/26 05:42:36;;;;;;;74.68;34.38;;;;;;;7.95;100.00;101353.22;12968386;22;20014;-89
2022/10/26 05:47:41;;;;;;;73.03;29.95;;;;;;;7.91;100.00;101308.13;12982965;22;20448;-94
2022/10/26 05:52:43;;;;;;;70.28;28.95;;;;;;;6.82;100.00;101147.72;12969540;22;20011;-89
2022/10/26 05:57:44;;;;;;;78.75;30.65;;;;;;;7.59;100.00;101284.41;12964983;22;20008;-94
2022/10/26 06:03:07;;;;;;;65.68;28.05;;;;;;;8.81;100.00;101409.13;12959770;22;20003;-94
2022/10/26 06:08:11;;;;;;;60.85;26.75;;;;;;;7.81;100.00;101271.13;12917372;22;20030;-94
2022/10/26 06:13:13;;;;;;;63.40;27.30;;;;;;;7.26;100.00;101203.34;12944891;22;20072;-93
2022/10/26 06:18:23;;;;;;;62.75;25.85;;;;;;;7.62;100.00;101201.72;12939956;22;20007;-94
2022/10/26 06:24:05;;;;;;;61.95;27.77;;;;;;;7.68;100.00;101241.09;12931875;22;20023;-89
2022/10/26 06:29:24;;;;;;;62.97;27.00;;;;;;;8.93;100.00;101393.56;12889818;22;20050;-89
2022/10/26 06:34:34;;;;;;;54.33;27.17;;;;;;;7.91;100.00;101284.28;12804956;22;20098;-94
2022/10/26 06:39:48;;;;;;;59.47;26.58;;;;;;;7.15;100.00;101160.28;12731970;22;20110;-94
2022/10/26 06:44:51;;;;;;;49.72;24.80;;;;;;;7.55;100.00;101189.19;12862931;22;20099;-89
2022/10/26 06:50:28;;;;;;;51.35;24.58;;;;;;;7.67;100.00;101196.41;12765273;22;20416;-95
2022/10/26 06:55:40;;;;;;;;;;;;;;;;;;;;;
2022/10/26 07:07:11;;;;;;;;;;;;;;;;;;;;;
2022/10/26 07:13:04;;;;;;;39.38;20.58;;;;;;;8.63;100.00;101317.47;12663504;22;20017;-95
2022/10/26 07:18:16;;;;;;;;;;;;;;;;;;;;;
2022/10/26 07:23:17;;;;;;;37.67;19.45;;;;;;;8.50;100.00;101268.25;12792560;22;20030;-93
2022/10/26 07:28:38;;;;;;;33.17;18.13;;;;;;;8.31;100.00;101182.38;12789979;22;20019;-94
2022/10/26 07:33:44;;;;;;;35.47;19.43;;;;;;;9.42;100.00;101375.13;12844903;22;20019;-94
2022/10/26 07:38:52;;;;;;;32.05;17.48;;;;;;;8.24;100.00;101167.91;12819021;22;20006;-95
2022/10/26 07:43:59;;;;;;;31.00;16.92;;;;;;;8.36;100.00;101190.72;12834147;22;20094;-95
2022/10/26 07:49:05;;;;;;;28.58;16.35;;;;;;;8.73;100.00;101231.00;12864995;22;20031;-95
2022/10/26 07:55:10;;;;;;;;;;;;;;;;;;;;;
2022/10/26 08:00:34;;;;;;;28.80;15.70;;;;;;;10.09;100.00;101401.56;12902766;22;21668;-90
2022/10/26 08:05:37;;;;;;;26.17;14.10;;;;;;;8.57;100.00;101134.53;12884531;22;20039;-90
2022/10/26 08:10:45;;;;;;;25.10;13.75;;;;;;;8.99;100.00;101196.81;12779687;22;20023;-91
2022/10/26 08:15:46;;;;;;;25.13;12.48;;;;;;;9.36;100.00;101189.19;12785025;22;20014;-90
2022/10/26 08:21:23;;;;;;;20.67;13.75;;;;;;;8.87;100.00;101103.44;12834296;22;20021;-93
2022/10/26 08:33:51;;;;;;;19.35;11.55;;;;;;;9.81;100.00;101174.81;12502524;23;20031;-93
2022/10/26 08:52:04;;;;;;;14.32;7.95;;;;;;;10.65;100.00;101157.81;12551772;23;20018;-92
2022/10/26 08:57:40;;;;;;;13.38;6.88;;;;;;;11.88;100.00;101329.91;12511690;23;20021;-92
2022/10/26 09:09:07;;;;;;;11.40;6.53;;;;;;;12.28;100.00;101373.91;12544680;22;20018;-90
2022/10/26 09:20:47;;;;;;;10.65;5.68;;;;;;;11.06;100.00;101185.25;12858093;22;20024;-92
2022/10/26 09:26:15;;;;;;;10.35;5.60;;;;;;;10.84;100.00;101105.25;12776115;22;20016;-91
2022/10/26 09:31:16;;;;;;;17.15;4.95;;;;;;;11.98;100.00;101250.06;12799778;22;20883;-91
2022/10/26 09:36:21;;;;;;;7.75;4.93;;;;;;;13.31;100.00;101403.72;12779847;22;20026;-90
2022/10/26 09:54:57;;;;;;;;;;;;;;;;;;;;;
2022/10/26 10:00:46;;;;;;;;;;;;;;;;;;;;;
2022/10/26 10:06:17;;;;;;;19.48;4.03;;;;;;;14.99;100.00;101379.47;12650902;22;20011;-90
2022/10/26 10:11:32;;;;;;;11.10;3.40;;;;;;;13.57;100.00;101151.41;12768335;22;20016;-91
2022/10/26 10:23:55;;;;;;;6.88;3.58;;;;;;;14.40;100.00;101167.25;12854545;22;20004;-91
2022/10/26 10:37:05;;;;;;;;;;;;;;;;;;;;;
2022/10/26 10:42:50;;;;;;;;;;;;;;;;;;;;;
2022/10/26 10:55:06;;;;;;;5.20;2.33;;;;;;;16.43;100.00;101399.88;12186449;23;20014;-91
2022/10/26 11:00:37;;;;;;;;;;;;;;;;;;;;;
2022/10/26 11:06:20;;;;;;;4.05;1.80;;;;;;;16.04;100.00;101243.03;12186573;23;20022;-90
2022/10/26 11:11:37;;;;;;;4.13;1.98;;;;;;;16.96;100.00;101357.75;12586079;23;20028;-94
2022/10/26 11:17:29;;;;;;;7.38;2.17;;;;;;;15.86;100.00;101172.25;12660883;22;20008;-94
2022/10/26 11:23:17;;;;;;;5.95;2.97;;;;;;;15.90;100.00;101170.59;12723039;22;20023;-91
2022/10/26 11:28:45;;;;;;;8.93;2.20;;;;;;;17.73;100.00;101383.97;12602477;22;20023;-94
2022/10/26 11:46:24;;;;;;;5.57;1.90;;;;;;;18.11;100.00;101313.78;12776407;22;20024;-90
2022/10/26 11:58:01;;;;;;;7.35;2.30;;;;;;;19.29;100.00;101379.31;12843547;22;20004;-95
2022/10/26 12:03:34;;;;;;;6.85;1.88;;;;;;;17.95;100.00;101144.00;12756707;22;20244;-96
2022/10/26 12:08:42;;;;;;;6.03;1.88;;;;;;;18.60;100.00;101273.59;12751513;22;20099;-93
2022/10/26 12:14:18;;;;;;;;;;;;;;;;;;;;;
2022/10/26 13:03:17;;;;;;;6.10;2.10;;;;;;;20.66;100.00;101422.88;11832643;22;22018081;-91
2022/10/26 13:08:26;;;;;;;11.02;2.50;;;;;;;21.21;100.00;101314.81;12682099;23;20059;-88
2022/10/26 13:13:27;;;;;;;7.63;2.30;;;;;;;20.95;100.00;101290.22;12659688;23;20036;-91
2022/10/26 13:19:09;;;;;;;8.27;2.22;;;;;;;20.93;100.00;101281.28;12526167;23;20013;-96
2022/10/26 13:24:57;;;;;;;5.60;2.65;;;;;;;20.55;100.00;101178.06;12347591;23;20045;-94
2022/10/26 13:30:04;;;;;;;7.68;2.83;;;;;;;21.90;100.00;101405.06;12476675;23;20023;-88
2022/10/26 13:35:04;;;;;;;10.73;2.85;;;;;;;21.82;100.00;101369.38;12733184;23;20365;-85
2022/10/26 13:40:05;;;;;;;7.35;2.45;;;;;;;22.68;100.00;101339.34;12656714;23;20010;-85
2022/10/26 13:58:24;;;;;;;6.93;3.60;;;;;;;18.82;100.00;101242.38;12022829;24;20022;-93
2022/10/26 14:03:25;;;;;;;7.88;2.60;;;;;;;19.43;100.00;101407.28;12257776;23;20033;-83
2022/10/26 14:08:25;;;;;;;8.18;2.67;;;;;;;19.50;100.00;101382.63;12655900;23;20054;-84
2022/10/26 14:13:27;;;;;;;5.90;2.45;;;;;;;20.17;100.00;101446.66;12668316;23;20009;-83
2022/10/26 14:18:28;;;;;;;6.70;2.58;;;;;;;20.59;100.00;101428.06;12694673;23;20324;-84
2022/10/26 14:23:55;;;;;;;12.27;3.65;;;;;;;20.62;100.00;101483.38;12670622;23;20002;-85
2022/10/26 14:28:57;;;;;;;8.75;2.53;;;;;;;19.96;100.00;101505.69;12716618;23;20082;-88
2022/10/26 14:34:06;;;;;;;6.90;2.53;;;;;;;18.61;100.00;101389.59;12608247;23;20356;-93
2022/10/26 14:52:32;;;;;;;10.40;3.28;;;;;;;16.70;100.00;101249.41;12376210;23;20030;-94
2022/10/26 14:57:46;;;;;;;8.82;3.47;;;;;;;18.23;100.00;101561.41;12359553;23;20024;-89
2022/10/26 15:02:50;;;;;;;12.55;3.67;;;;;;;17.94;100.00;101503.63;12578233;23;20043;-87
2022/10/26 15:07:51;;;;;;;9.30;3.80;;;;;;;17.24;100.00;101470.28;12670207;23;20022;-86
2022/10/26 15:12:51;;;;;;;9.68;3.45;;;;;;;17.44;100.00;101573.19;12669605;23;20009;-87
2022/10/26 15:17:55;;;;;;;7.55;3.38;;;;;;;16.05;100.00;101400.19;12577717;23;20071;-89
2022/10/26 15:23:11;;;;;;;8.98;3.60;;;;;;;15.14;100.00;101274.97;12675723;23;20089;-91
2022/10/26 15:28:21;;;;;;;6.15;3.47;;;;;;;15.78;100.00;101411.59;12636893;23;20105;-89
2022/10/26 15:33:22;;;;;;;11.38;4.20;;;;;;;15.55;100.00;101446.22;12689219;23;20097;-88
2022/10/26 15:38:22;;;;;;;11.25;4.85;;;;;;;14.79;100.00;101369.13;12665027;23;19997;-87
2022/10/26 15:43:23;;;;;;;10.60;5.40;;;;;;;14.94;100.00;101424.63;12664519;23;20107;-87
2022/10/26 15:48:26;;;;;;;12.57;6.22;;;;;;;14.91;100.00;101450.13;12651877;23;20449;-88
2022/10/26 15:53:26;;;;;;;11.23;5.72;;;;;;;14.59;100.00;101426.09;12690586;23;20005;-88
2022/10/26 15:58:28;;;;;;;12.95;6.35;;;;;;;14.41;100.00;101415.47;12665435;23;20029;-87
2022/10/26 16:03:28;;;;;;;12.27;7.97;;;;;;;14.36;100.00;101484.66;12648039;23;20100;-88
2022/10/26 16:08:29;;;;;;;15.45;8.77;;;;;;;14.27;100.00;101482.38;12665189;23;20082;-87
2022/10/26 16:13:30;;;;;;;12.90;7.65;;;;;;;14.99;100.00;101568.84;12664126;23;20016;-88
2022/10/26 16:18:30;;;;;;;12.18;6.80;;;;;;;14.48;100.00;101504.69;12665275;23;20264;-89
2022/10/26 16:23:31;;;;;;;17.65;8.32;;;;;;;13.76;100.00;101432.09;12665309;23;20006;-89
2022/10/26 16:28:34;;;;;;;16.98;7.55;;;;;;;14.20;100.00;101525.22;12669212;23;20448;-90
2022/10/26 16:33:34;;;;;;;9.60;6.65;;;;;;;14.00;100.00;101539.72;12658765;23;20021;-88
2022/10/26 16:38:35;;;;;;;12.80;7.28;;;;;;;12.65;100.00;101389.88;12632124;23;20424;-89
2022/10/26 16:43:37;;;;;;;14.50;8.50;;;;;;;14.25;100.00;101656.28;12600062;23;20388;-88
2022/10/26 16:48:38;;;;;;;15.25;9.13;;;;;;;12.66;100.00;101432.97;12628518;23;20026;-88
2022/10/26 16:53:41;;;;;;;13.68;8.07;;;;;;;14.02;100.00;101664.88;12573731;23;20084;-89
2022/10/26 16:58:42;;;;;;;12.60;8.23;;;;;;;13.51;100.00;101629.91;12636445;23;20436;-90
2022/10/26 17:03:47;;;;;;;13.35;8.77;;;;;;;13.03;100.00;101578.03;12641541;23;20017;-90
2022/10/26 17:08:50;;;;;;;17.13;9.32;;;;;;;14.03;100.00;101691.47;12665729;23;20024;-90
2022/10/26 17:13:54;;;;;;;14.73;10.27;;;;;;;13.48;100.00;101649.78;12687369;23;20013;-89
2022/10/26 17:18:55;;;;;;;18.17;9.18;;;;;;;12.74;100.00;101492.50;12629372;23;20013;-89
2022/10/26 17:23:55;;;;;;;10.90;8.65;;;;;;;13.68;100.00;101629.00;12668201;23;20017;-87
2022/10/26 17:28:56;;;;;;;17.38;10.00;;;;;;;13.90;100.00;101687.16;12687482;23;20052;-87
2022/10/26 17:34:25;;;;;;;11.80;10.00;;;;;;;12.23;100.00;101448.34;12621005;23;20016;-88
2022/10/26 17:39:55;;;;;;;16.40;10.38;;;;;;;12.88;100.00;101592.47;12621704;23;20354;-88
2022/10/26 17:57:58;;;;;;;17.52;12.23;;;;;;;13.60;100.00;101798.22;12000010;24;20026;-94
2022/10/26 18:02:58;;;;;;;21.40;11.70;;;;;;;12.63;100.00;101679.34;12544882;23;20039;-88
2022/10/26 18:07:59;;;;;;;19.25;14.50;;;;;;;12.93;100.00;101758.34;12665259;23;20021;-95
2022/10/26 18:13:00;;;;;;;18.80;13.60;;;;;;;12.51;100.00;101689.63;12659843;23;20019;-88
2022/10/26 18:18:01;;;;;;;18.98;16.17;;;;;;;13.03;100.00;101761.31;12656826;23;20065;-88
2022/10/26 18:23:02;;;;;;;21.55;16.25;;;;;;;13.18;100.00;101768.19;12598477;23;20080;-93
2022/10/26 18:28:05;;;;;;;20.38;15.05;;;;;;;13.62;100.00;101856.91;12647334;23;20036;-87
2022/10/26 18:33:08;;;;;;;17.17;14.23;;;;;;;12.19;100.00;101634.06;12671698;23;20017;-87
2022/10/26 18:38:09;;;;;;;16.65;13.32;;;;;;;11.63;100.00;101562.84;12686970;23;20343;-88
2022/10/26 18:43:12;;;;;;;17.20;14.82;;;;;;;12.27;100.00;101686.94;12661206;23;20006;-88
2022/10/26 18:48:25;;;;;;;17.65;14.80;;;;;;;12.77;100.00;101789.56;12613874;23;20326;-87
2022/10/26 18:53:26;;;;;;;19.20;14.13;;;;;;;12.00;100.00;101647.22;12699578;23;20005;-87
2022/10/26 18:58:34;;;;;;;17.20;13.93;;;;;;;11.20;100.00;101599.94;12686388;23;20353;-88
2022/10/26 19:03:35;;;;;;;20.17;13.80;;;;;;;12.49;100.00;101832.66;12437797;23;20023;-88
2022/10/26 19:08:40;;;;;;;17.35;15.23;;;;;;;11.52;100.00;101707.13;12438012;23;20018;-87
2022/10/26 19:13:41;;;;;;;19.77;14.93;;;;;;;11.14;100.00;101660.72;12551399;23;20022;-91
2022/10/26 19:18:42;;;;;;;19.98;14.68;;;;;;;11.29;100.00;101710.72;12576060;23;20010;-91
2022/10/26 19:23:47;;;;;;;23.90;15.85;;;;;;;11.32;100.00;101707.47;12585458;23;20442;-91
2022/10/26 19:28:56;;;;;;;19.13;17.02;;;;;;;10.57;100.00;101611.66;12571371;23;20097;-88
2022/10/26 19:33:57;;;;;;;29.20;20.27;;;;;;;10.64;100.00;101621.47;12592535;23;20077;-92
2022/10/26 19:39:01;;;;;;;24.95;21.05;;;;;;;10.87;100.00;101672.19;12566628;23;20066;-92
2022/10/26 19:44:03;;;;;;;35.58;23.98;;;;;;;11.21;100.00;101695.34;12562609;23;20022;-92
2022/10/26 19:49:12;;;;;;;30.75;25.23;;;;;;;12.16;100.00;101856.22;12546935;23;20097;-91
2022/10/26 19:54:20;;;;;;;27.75;21.90;;;;;;;11.75;100.00;101744.03;12439997;23;20006;-89
2022/10/26 19:59:21;;;;;;;27.25;21.67;;;;;;;12.52;100.00;101821.09;12579054;23;20006;-91
2022/10/26 20:04:22;;;;;;;23.08;19.63;;;;;;;11.88;100.00;101711.53;12621374;23;20022;-91
2022/10/26 20:09:22;;;;;;;30.55;19.83;;;;;;;12.24;100.00;101806.16;12627229;23;20026;-90
2022/10/26 20:14:23;;;;;;;24.92;18.70;;;;;;;12.04;100.00;101742.22;12679765;23;20056;-92
2022/10/26 20:19:24;;;;;;;20.52;16.90;;;;;;;11.96;100.00;101731.56;12601135;23;20324;-92
2022/10/26 20:24:30;;;;;;;21.83;17.27;;;;;;;11.46;100.00;101681.34;12637367;23;20013;-90
2022/10/26 20:29:31;;;;;;;29.05;18.55;;;;;;;12.64;100.00;101830.19;12653660;23;20025;-91
2022/10/26 20:34:32;;;;;;;22.15;15.85;;;;;;;11.85;100.00;101694.59;12674053;23;20009;-90
2022/10/26 20:39:32;;;;;;;18.85;15.70;;;;;;;13.44;100.00;101972.25;12673522;23;20001;-90
2022/10/26 20:44:37;;;;;;;22.70;16.08;;;;;;;12.38;100.00;101812.28;12674590;23;20006;-91
2022/10/26 20:49:38;;;;;;;21.10;14.27;;;;;;;12.24;100.00;101780.47;12667480;23;20025;-91
2022/10/26 20:54:43;;;;;;;17.35;13.07;;;;;;;12.15;100.00;101770.88;12665799;23;20085;-91
2022/10/26 21:00:03;;;;;;;;;;;;;;;;;;;;;
2022/10/26 21:05:13;;;;;;;22.48;14.35;;;;;;;11.93;100.00;101789.97;12304981;23;20020;-91
2022/10/26 21:10:37;;;;;;;20.15;14.43;;;;;;;12.55;100.00;101881.41;12206379;23;20023;-91
2022/10/26 21:15:49;;;;;;;24.42;13.30;;;;;;;11.92;100.00;101783.63;12260007;23;20027;-87
2022/10/26 21:20:49;;;;;;;18.42;13.00;;;;;;;12.79;100.00;101904.28;12531156;23;20026;-88
2022/10/26 21:26:48;;;;;;;16.48;13.45;;;;;;;13.28;100.00;101989.59;12576468;23;20344;-91
2022/10/26 21:31:48;;;;;;;16.83;12.10;;;;;;;12.43;100.00;101895.22;12693646;23;20027;-88
2022/10/26 21:36:49;;;;;;;15.95;11.82;;;;;;;12.28;100.00;101897.66;12639400;23;20022;-89
2022/10/26 21:41:50;;;;;;;20.42;12.73;;;;;;;11.51;100.00;101827.63;12514574;23;20460;-89
2022/10/26 21:47:16;;;;;;;24.73;12.95;;;;;;;12.17;100.00;101937.94;12541244;23;20014;-89
2022/10/26 21:52:28;;;;;;;19.38;11.90;;;;;;;11.02;100.00;101791.06;12587713;23;20083;-88
2022/10/26 21:58:08;;;;;;;19.55;11.13;;;;;;;10.22;100.00;101697.69;12452198;23;20018;-88
2022/10/26 22:03:13;;;;;;;18.63;12.77;;;;;;;10.73;100.00;101781.75;12511793;23;20017;-89
2022/10/26 22:13:59;;;;;;;21.85;13.15;;;;;;;11.15;100.00;101880.13;12551455;23;20006;-89
2022/10/26 22:19:06;;;;;;;27.58;13.52;;;;;;;11.11;100.00;101855.78;12467742;23;20024;-89
2022/10/26 22:24:07;;;;;;;19.02;11.85;;;;;;;11.57;100.00;101946.31;12666300;23;20016;-89
2022/10/26 22:29:07;;;;;;;20.52;12.05;;;;;;;11.54;100.00;101931.09;12673900;23;20024;-88
2022/10/26 22:34:41;;;;;;;;;;;;;;;;;;;;;
2022/10/26 22:39:42;;;;;;;22.13;11.57;;;;;;;11.73;100.00;101984.28;12433672;23;20012;-90
2022/10/26 22:45:42;;;;;;;18.23;11.90;;;;;;;9.95;100.00;101688.94;12474419;23;20021;-92
2022/10/26 22:50:42;;;;;;;17.02;10.40;;;;;;;11.56;100.00;101984.09;12576620;23;20013;-89
2022/10/26 22:55:44;;;;;;;18.52;10.60;;;;;;;11.54;100.00;101953.16;12648518;23;20013;-89
2022/10/26 23:00:44;;;;;;;21.52;10.65;;;;;;;10.57;100.00;101831.94;12680080;23;20006;-89
2022/10/26 23:05:49;;;;;;;17.83;10.38;;;;;;;9.78;100.00;101769.28;12675480;23;20025;-89
2022/10/26 23:10:52;;;;;;;21.63;9.90;;;;;;;10.10;100.00;101833.25;12573545;23;20040;-89
2022/10/26 23:15:55;;;;;;;19.17;10.33;;;;;;;10.91;100.00;101959.91;12658524;23;20024;-91
2022/10/26 23:20:56;;;;;;;18.63;9.82;;;;;;;9.64;100.00;101793.31;12705356;23;20721;-92
2022/10/26 23:26:04;;;;;;;21.98;11.15;;;;;;;10.16;100.00;101919.59;12703380;23;20456;-91
2022/10/26 23:31:07;;;;;;;19.77;12.30;;;;;;;10.41;100.00;101929.75;12594807;23;20017;-91
2022/10/26 23:36:10;;;;;;;22.97;12.17;;;;;;;11.27;100.00;102065.72;12571051;23;20016;-92
2022/10/26 23:41:16;;;;;;;27.23;13.00;;;;;;;10.18;100.00;101903.69;12587998;23;20009;-91
2022/10/26 23:46:16;;;;;;;25.20;14.55;;;;;;;10.66;100.00;101996.63;12688127;23;20008;-91
2022/10/26 23:51:17;;;;;;;28.95;15.10;;;;;;;10.98;100.00;102020.47;12700862;23;20025;-92
2022/10/26 23:56:18;;;;;;;25.88;14.07;;;;;;;10.38;100.00;101913.69;12682317;23;20025;-92
